createdAt,value
2024-05-09T00:00:22.508Z,0.00
2024-05-09T00:01:18.643Z,0.00
2024-05-09T00:02:17.692Z,0.00
2024-05-09T00:03:17.585Z,0.00
2024-05-09T00:04:17.596Z,0.00
2024-05-09T00:05:17.697Z,0.00
2024-05-09T00:06:17.598Z,0.00
2024-05-09T00:07:17.526Z,0.00
2024-05-09T00:08:17.619Z,0.00
2024-05-09T00:09:17.510Z,0.00
2024-05-09T00:10:25.368Z,0.00
2024-05-09T00:11:18.564Z,0.00
2024-05-09T00:12:17.638Z,0.00
2024-05-09T00:13:17.472Z,0.00
2024-05-09T00:14:17.600Z,0.00
2024-05-09T00:15:17.457Z,0.00
2024-05-09T00:16:17.450Z,0.00
2024-05-09T00:17:17.559Z,0.00
2024-05-09T00:18:17.569Z,0.00
2024-05-09T00:19:17.478Z,0.00
2024-05-09T00:20:24.158Z,0.00
2024-05-09T00:21:18.384Z,0.00
2024-05-09T00:22:17.354Z,0.00
2024-05-09T00:23:17.388Z,0.00
2024-05-09T00:24:17.334Z,0.00
2024-05-09T00:25:17.343Z,0.00
2024-05-09T00:26:17.465Z,0.00
2024-05-09T00:27:17.309Z,0.00
2024-05-09T00:28:17.290Z,0.00
2024-05-09T00:29:17.319Z,0.00
2024-05-09T00:30:24.389Z,0.00
2024-05-09T00:31:18.271Z,0.00
2024-05-09T00:32:17.516Z,0.00
2024-05-09T00:33:17.485Z,0.00
2024-05-09T00:34:17.370Z,0.00
2024-05-09T00:35:17.225Z,0.00
2024-05-09T00:36:17.222Z,0.00
2024-05-09T00:37:17.215Z,0.00
2024-05-09T00:38:17.248Z,0.00
2024-05-09T00:39:17.167Z,0.00
2024-05-09T00:40:26.502Z,0.00
2024-05-09T00:41:19.759Z,0.00
2024-05-09T00:42:17.134Z,0.00
2024-05-09T00:43:17.139Z,0.00
2024-05-09T00:44:17.205Z,0.00
2024-05-09T00:45:17.115Z,0.00
2024-05-09T00:46:17.111Z,0.00
2024-05-09T00:47:17.237Z,0.00
2024-05-09T00:48:19.795Z,0.00
2024-05-09T00:49:17.206Z,0.00
2024-05-09T00:50:22.955Z,0.00
2024-05-09T00:51:18.164Z,0.00
2024-05-09T00:52:17.047Z,0.00
2024-05-09T00:53:17.079Z,0.00
2024-05-09T00:54:17.002Z,0.00
2024-05-09T00:55:16.995Z,0.00
2024-05-09T00:56:17.031Z,0.00
2024-05-09T00:57:16.981Z,0.00
2024-05-09T00:58:16.960Z,0.00
2024-05-09T00:59:16.980Z,0.00
2024-05-09T01:00:26.203Z,0.00
2024-05-09T01:01:18.011Z,0.00
2024-05-09T01:02:17.109Z,0.00
2024-05-09T01:03:17.186Z,0.00
2024-05-09T01:04:16.951Z,0.00
2024-05-09T01:05:17.042Z,0.00
2024-05-09T01:06:16.873Z,0.00
2024-05-09T01:07:16.874Z,0.00
2024-05-09T01:08:16.892Z,0.00
2024-05-09T01:09:16.838Z,0.00
2024-05-09T01:10:21.310Z,0.00
2024-05-09T01:11:17.956Z,0.00
2024-05-09T01:12:16.938Z,0.00
2024-05-09T01:13:16.811Z,0.00
2024-05-09T01:14:16.861Z,0.00
2024-05-09T01:15:16.774Z,0.00
2024-05-09T01:16:16.766Z,0.00
2024-05-09T01:17:16.891Z,0.00
2024-05-09T01:18:16.952Z,0.00
2024-05-09T01:19:16.938Z,0.00
2024-05-09T01:20:22.857Z,0.00
2024-05-09T01:21:17.820Z,0.00
2024-05-09T01:22:16.704Z,0.00
2024-05-09T01:23:16.908Z,0.00
2024-05-09T01:24:16.681Z,0.00
2024-05-09T01:25:16.666Z,0.00
2024-05-09T01:26:16.734Z,0.00
2024-05-09T01:27:16.642Z,0.00
2024-05-09T01:28:16.714Z,0.00
2024-05-09T01:29:16.653Z,0.00
2024-05-09T01:30:21.094Z,0.00
2024-05-09T01:31:17.596Z,0.00
2024-05-09T01:32:16.671Z,0.00
2024-05-09T01:33:16.776Z,0.00
2024-05-09T01:34:16.652Z,0.00
2024-05-09T01:35:16.595Z,0.00
2024-05-09T01:36:16.557Z,0.00
2024-05-09T01:37:16.537Z,0.00
2024-05-09T01:38:16.620Z,0.00
2024-05-09T01:39:16.513Z,0.00
2024-05-09T01:40:22.076Z,0.00
2024-05-09T01:41:17.524Z,0.00
2024-05-09T01:42:16.492Z,0.00
2024-05-09T01:43:16.507Z,0.00
2024-05-09T01:44:16.526Z,0.00
2024-05-09T01:45:16.445Z,0.00
2024-05-09T01:46:16.438Z,0.00
2024-05-09T01:47:16.565Z,0.00
2024-05-09T01:48:16.528Z,0.00
2024-05-09T01:49:16.626Z,0.00
2024-05-09T01:50:16.705Z,0.00
2024-05-09T01:51:16.485Z,0.00
2024-05-09T01:52:16.372Z,0.00
2024-05-09T01:53:16.388Z,0.00
2024-05-09T01:54:16.350Z,0.00
2024-05-09T01:55:16.344Z,0.00
2024-05-09T01:56:16.425Z,0.00
2024-05-09T01:57:16.326Z,0.00
2024-05-09T01:58:16.318Z,0.00
2024-05-09T01:59:16.351Z,0.00
2024-05-09T02:00:25.851Z,0.00
2024-05-09T02:01:17.434Z,0.00
2024-05-09T02:02:16.504Z,0.00
2024-05-09T02:03:17.766Z,0.00
2024-05-09T02:04:16.685Z,0.00
2024-05-09T02:05:16.513Z,0.00
2024-05-09T02:06:16.326Z,0.00
2024-05-09T02:07:16.206Z,0.00
2024-05-09T02:08:16.602Z,0.00
2024-05-09T02:09:16.196Z,0.00
2024-05-09T02:10:20.578Z,0.00
2024-05-09T02:11:17.261Z,0.00
2024-05-09T02:12:16.347Z,0.00
2024-05-09T02:13:16.664Z,0.00
2024-05-09T02:14:16.239Z,0.00
2024-05-09T02:15:16.116Z,0.00
2024-05-09T02:16:16.115Z,0.00
2024-05-09T02:17:16.333Z,0.00
2024-05-09T02:18:16.275Z,0.00
2024-05-09T02:19:16.240Z,0.00
2024-05-09T02:20:22.743Z,0.00
2024-05-09T02:21:17.114Z,0.00
2024-05-09T02:22:16.075Z,0.00
2024-05-09T02:23:16.061Z,0.00
2024-05-09T02:24:16.022Z,0.00
2024-05-09T02:25:16.015Z,0.00
2024-05-09T02:26:16.200Z,0.00
2024-05-09T02:27:15.997Z,0.00
2024-05-09T02:28:15.979Z,0.00
2024-05-09T02:29:16.060Z,0.00
2024-05-09T02:30:25.430Z,0.00
2024-05-09T02:31:16.942Z,0.00
2024-05-09T02:32:16.064Z,0.00
2024-05-09T02:33:16.062Z,0.00
2024-05-09T02:34:15.994Z,0.00
2024-05-09T02:35:16.060Z,0.00
2024-05-09T02:36:15.897Z,0.00
2024-05-09T02:37:15.902Z,0.00
2024-05-09T02:38:15.993Z,0.00
2024-05-09T02:39:15.878Z,0.00
2024-05-09T02:40:21.644Z,0.00
2024-05-09T02:41:16.920Z,0.00
2024-05-09T02:42:15.829Z,0.00
2024-05-09T02:43:15.814Z,0.00
2024-05-09T02:44:15.905Z,0.00
2024-05-09T02:45:15.806Z,0.00
2024-05-09T02:46:15.783Z,0.00
2024-05-09T02:47:15.881Z,0.00
2024-05-09T02:48:15.982Z,0.00
2024-05-09T02:49:15.965Z,0.00
2024-05-09T02:50:23.029Z,0.00
2024-05-09T02:51:16.805Z,0.00
2024-05-09T02:52:15.722Z,0.00
2024-05-09T02:53:15.755Z,0.00
2024-05-09T02:54:15.704Z,0.00
2024-05-09T02:55:15.690Z,0.00
2024-05-09T02:56:15.754Z,0.00
2024-05-09T02:57:15.678Z,0.00
2024-05-09T02:58:15.660Z,0.00
2024-05-09T02:59:15.769Z,0.00
2024-05-09T03:00:22.544Z,0.00
2024-05-09T03:01:16.697Z,0.00
2024-05-09T03:02:15.718Z,0.00
2024-05-09T03:03:16.019Z,0.00
2024-05-09T03:04:15.659Z,0.00
2024-05-09T03:05:15.631Z,0.00
2024-05-09T03:06:15.574Z,0.00
2024-05-09T03:07:16.290Z,0.00
2024-05-09T03:08:15.586Z,0.00
2024-05-09T03:09:15.665Z,0.00
2024-05-09T03:10:22.242Z,0.00
2024-05-09T03:11:16.559Z,0.00
2024-05-09T03:12:15.532Z,0.00
2024-05-09T03:13:16.375Z,0.00
2024-05-09T03:14:15.506Z,0.00
2024-05-09T03:15:15.462Z,0.00
2024-05-09T03:16:15.491Z,0.00
2024-05-09T03:17:15.530Z,0.00
2024-05-09T03:18:15.784Z,0.00
2024-05-09T03:19:15.615Z,0.00
2024-05-09T03:20:20.721Z,0.00
2024-05-09T03:21:16.445Z,0.00
2024-05-09T03:22:15.390Z,0.00
2024-05-09T03:23:15.430Z,0.00
2024-05-09T03:24:15.368Z,0.00
2024-05-09T03:25:15.383Z,0.00
2024-05-09T03:26:15.374Z,4.00
2024-05-09T03:27:15.346Z,4.00
2024-05-09T03:28:15.343Z,0.00
2024-05-09T03:29:15.351Z,4.00
2024-05-09T03:30:28.825Z,4.00
2024-05-09T03:31:16.329Z,4.00
2024-05-09T03:32:15.372Z,4.00
2024-05-09T03:33:16.145Z,8.00
2024-05-09T03:34:15.263Z,8.00
2024-05-09T03:35:15.280Z,8.00
2024-05-09T03:36:15.232Z,12.00
2024-05-09T03:37:15.307Z,12.00
2024-05-09T03:38:15.419Z,20.00
2024-05-09T03:39:15.210Z,24.00
2024-05-09T03:40:20.869Z,24.00
2024-05-09T03:41:16.253Z,28.00
2024-05-09T03:42:15.170Z,32.00
2024-05-09T03:43:15.192Z,40.00
2024-05-09T03:44:15.186Z,48.00
2024-05-09T03:45:15.133Z,52.00
2024-05-09T03:46:15.139Z,60.00
2024-05-09T03:47:15.269Z,68.00
2024-05-09T03:48:15.352Z,72.00
2024-05-09T03:49:15.362Z,84.00
2024-05-09T03:50:22.155Z,88.00
2024-05-09T03:51:16.111Z,104.00
2024-05-09T03:52:15.072Z,120.00
2024-05-09T03:53:15.202Z,136.00
2024-05-09T03:54:15.037Z,160.00
2024-05-09T03:55:15.085Z,188.00
2024-05-09T03:56:15.069Z,212.00
2024-05-09T03:57:15.061Z,240.00
2024-05-09T03:58:15.010Z,268.00
2024-05-09T03:59:15.188Z,292.00
2024-05-09T04:00:21.938Z,316.00
2024-05-09T04:01:16.049Z,328.00
2024-05-09T04:02:15.206Z,340.00
2024-05-09T04:03:15.296Z,360.00
2024-05-09T04:04:15.018Z,384.00
2024-05-09T04:05:14.967Z,408.00
2024-05-09T04:06:14.911Z,432.00
2024-05-09T04:07:14.968Z,452.00
2024-05-09T04:08:15.393Z,480.00
2024-05-09T04:09:14.871Z,516.00
2024-05-09T04:10:23.970Z,556.00
2024-05-09T04:11:15.954Z,600.00
2024-05-09T04:12:14.952Z,644.00
2024-05-09T04:13:14.871Z,688.00
2024-05-09T04:14:14.865Z,732.00
2024-05-09T04:15:14.808Z,772.00
2024-05-09T04:16:14.798Z,816.00
2024-05-09T04:17:14.874Z,860.00
2024-05-09T04:18:14.879Z,908.00
2024-05-09T04:19:15.184Z,960.00
2024-05-09T04:20:24.293Z,1036.00
2024-05-09T04:21:15.782Z,1128.00
2024-05-09T04:22:14.741Z,1248.00
2024-05-09T04:23:15.099Z,1364.00
2024-05-09T04:24:14.709Z,1436.00
2024-05-09T04:25:14.766Z,1500.00
2024-05-09T04:26:14.712Z,1572.00
2024-05-09T04:27:14.676Z,1624.00
2024-05-09T04:28:14.786Z,1672.00
2024-05-09T04:29:14.824Z,1688.00
2024-05-09T04:30:21.740Z,1704.00
2024-05-09T04:31:15.680Z,1732.00
2024-05-09T04:32:14.706Z,1788.00
2024-05-09T04:33:15.364Z,1860.00
2024-05-09T04:34:14.827Z,1928.00
2024-05-09T04:35:14.632Z,2004.00
2024-05-09T04:36:14.597Z,2076.00
2024-05-09T04:37:14.622Z,2140.00
2024-05-09T04:38:15.304Z,2208.00
2024-05-09T04:39:14.543Z,2276.00
2024-05-09T04:40:24.211Z,2348.00
2024-05-09T04:41:15.592Z,2412.00
2024-05-09T04:42:14.511Z,2464.00
2024-05-09T04:43:14.551Z,2512.00
2024-05-09T04:44:14.532Z,2556.00
2024-05-09T04:45:14.652Z,2636.00
2024-05-09T04:46:14.486Z,2744.00
2024-05-09T04:47:14.546Z,2820.00
2024-05-09T04:48:14.751Z,2900.00
2024-05-09T04:49:14.682Z,3000.00
2024-05-09T04:50:21.211Z,3096.00
2024-05-09T04:51:15.469Z,3216.00
2024-05-09T04:52:14.402Z,3368.00
2024-05-09T04:53:14.467Z,3508.00
2024-05-09T04:54:26.048Z,3668.00
2024-05-09T04:55:15.440Z,3824.00
2024-05-09T04:56:14.485Z,3968.00
2024-05-09T04:57:14.360Z,4132.00
2024-05-09T04:58:14.338Z,4316.00
2024-05-09T04:59:14.382Z,4476.00
2024-05-09T05:00:18.090Z,4548.00
2024-05-09T05:01:15.507Z,4464.00
2024-05-09T05:02:14.391Z,4496.00
2024-05-09T05:03:15.934Z,4480.00
2024-05-09T05:04:14.385Z,4724.00
2024-05-09T05:05:14.370Z,4600.00
2024-05-09T05:06:14.281Z,5084.00
2024-05-09T05:07:14.250Z,5216.00
2024-05-09T05:08:14.819Z,5296.00
2024-05-09T05:09:14.226Z,5476.00
2024-05-09T05:10:21.431Z,5568.00
2024-05-09T05:11:15.256Z,5740.00
2024-05-09T05:12:14.316Z,5892.00
2024-05-09T05:13:14.242Z,6024.00
2024-05-09T05:14:14.232Z,6088.00
2024-05-09T05:15:14.178Z,5792.00
2024-05-09T05:16:14.155Z,5496.00
2024-05-09T05:17:14.186Z,5404.00
2024-05-09T05:18:14.199Z,5616.00
2024-05-09T05:19:17.474Z,6192.00
2024-05-09T05:20:17.944Z,6540.00
2024-05-09T05:21:15.143Z,7008.00
2024-05-09T05:22:14.066Z,7520.00
2024-05-09T05:23:14.482Z,7820.00
2024-05-09T05:24:14.048Z,7984.00
2024-05-09T05:25:14.081Z,8436.00
2024-05-09T05:26:14.056Z,9212.00
2024-05-09T05:27:14.019Z,9860.00
2024-05-09T05:28:14.017Z,10336.00
2024-05-09T05:29:14.710Z,10684.00
2024-05-09T05:30:21.156Z,10980.00
2024-05-09T05:31:15.120Z,11276.00
2024-05-09T05:32:14.183Z,11584.00
2024-05-09T05:33:14.352Z,11720.00
2024-05-09T05:34:14.037Z,11536.00
2024-05-09T05:35:14.005Z,10484.00
2024-05-09T05:36:13.937Z,10548.00
2024-05-09T05:37:14.027Z,9908.00
2024-05-09T05:38:13.981Z,10164.00
2024-05-09T05:39:13.888Z,10832.00
2024-05-09T05:40:24.618Z,11532.00
2024-05-09T05:41:14.903Z,11304.00
2024-05-09T05:42:13.858Z,10988.00
2024-05-09T05:43:13.908Z,10572.00
2024-05-09T05:44:13.879Z,9992.00
2024-05-09T05:45:13.840Z,10328.00
2024-05-09T05:46:13.815Z,11404.00
2024-05-09T05:47:13.952Z,12716.00
2024-05-09T05:48:14.256Z,14076.00
2024-05-09T05:49:14.072Z,15248.00
2024-05-09T05:50:23.799Z,14628.00
2024-05-09T05:51:14.858Z,13864.00
2024-05-09T05:52:13.783Z,13976.00
2024-05-09T05:53:13.950Z,13384.00
2024-05-09T05:54:13.723Z,16004.00
2024-05-09T05:55:13.763Z,17824.00
2024-05-09T05:56:13.825Z,20672.00
2024-05-09T05:57:13.700Z,19040.00
2024-05-09T05:58:13.683Z,17984.00
2024-05-09T05:59:15.490Z,17120.00
2024-05-09T06:01:13.777Z,15372.00
2024-05-09T06:02:13.930Z,12716.00
2024-05-09T06:03:14.334Z,12132.00
2024-05-09T06:04:13.672Z,11776.00
2024-05-09T06:05:13.792Z,11148.00
2024-05-09T06:06:13.748Z,12720.00
2024-05-09T06:07:13.661Z,13968.00
2024-05-09T06:08:13.938Z,17024.00
2024-05-09T06:09:13.690Z,16800.00
2024-05-09T06:10:20.971Z,14172.00
2024-05-09T06:11:14.661Z,12196.00
2024-05-09T06:12:13.683Z,13784.00
2024-05-09T06:13:14.370Z,13032.00
2024-05-09T06:14:13.723Z,13828.00
2024-05-09T06:15:13.525Z,16960.00
2024-05-09T06:16:13.500Z,14008.00
2024-05-09T06:17:13.588Z,13024.00
2024-05-09T06:18:13.749Z,14216.00
2024-05-09T06:19:13.691Z,15112.00
2024-05-09T06:20:20.583Z,14160.00
2024-05-09T06:21:14.617Z,12520.00
2024-05-09T06:22:13.411Z,12300.00
2024-05-09T06:23:13.683Z,12372.00
2024-05-09T06:24:13.398Z,12376.00
2024-05-09T06:25:13.423Z,12400.00
2024-05-09T06:26:13.434Z,12520.00
2024-05-09T06:27:13.361Z,12236.00
2024-05-09T06:28:13.347Z,12408.00
2024-05-09T06:29:13.374Z,12668.00
2024-05-09T06:30:24.891Z,12612.00
2024-05-09T06:31:14.396Z,12192.00
2024-05-09T06:32:13.384Z,11720.00
2024-05-09T06:33:15.529Z,11852.00
2024-05-09T06:34:13.479Z,12284.00
2024-05-09T06:35:13.313Z,12708.00
2024-05-09T06:36:13.285Z,13428.00
2024-05-09T06:37:13.303Z,14104.00
2024-05-09T06:38:13.373Z,14424.00
2024-05-09T06:39:13.230Z,14600.00
2024-05-09T06:40:17.425Z,14796.00
2024-05-09T06:41:13.286Z,15056.00
2024-05-09T06:42:13.201Z,15400.00
2024-05-09T06:43:13.342Z,15696.00
2024-05-09T06:44:13.282Z,15832.00
2024-05-09T06:45:13.166Z,15944.00
2024-05-09T06:46:13.151Z,15964.00
2024-05-09T06:47:13.239Z,15904.00
2024-05-09T06:48:13.321Z,15748.00
2024-05-09T06:49:13.348Z,15504.00
2024-05-09T06:50:20.456Z,15252.00
2024-05-09T06:51:14.221Z,14876.00
2024-05-09T06:52:13.091Z,14624.00
2024-05-09T06:53:13.117Z,14480.00
2024-05-09T06:54:13.056Z,14640.00
2024-05-09T06:55:13.102Z,14976.00
2024-05-09T06:56:13.168Z,15332.00
2024-05-09T06:57:13.037Z,15556.00
2024-05-09T06:58:13.046Z,15508.00
2024-05-09T06:59:13.057Z,15452.00
2024-05-09T07:00:19.122Z,15492.00
2024-05-09T07:01:14.087Z,15744.00
2024-05-09T07:02:13.102Z,16236.00
2024-05-09T07:03:15.287Z,16484.00
2024-05-09T07:04:13.127Z,16864.00
2024-05-09T07:05:13.052Z,17600.00
2024-05-09T07:06:12.964Z,18656.00
2024-05-09T07:07:12.952Z,19360.00
2024-05-09T07:08:13.100Z,19904.00
2024-05-09T07:09:12.930Z,20448.00
2024-05-09T07:10:21.471Z,20832.00
2024-05-09T07:11:14.107Z,21216.00
2024-05-09T07:12:12.949Z,21568.00
2024-05-09T07:13:13.243Z,21792.00
2024-05-09T07:14:12.867Z,21888.00
2024-05-09T07:15:12.835Z,21888.00
2024-05-09T07:16:12.836Z,21600.00
2024-05-09T07:17:12.901Z,21472.00
2024-05-09T07:18:13.398Z,21696.00
2024-05-09T07:19:13.019Z,22272.00
2024-05-09T07:20:22.984Z,23264.00
2024-05-09T07:21:13.932Z,24608.00
2024-05-09T07:22:12.753Z,25856.00
2024-05-09T07:23:13.089Z,27360.00
2024-05-09T07:24:12.737Z,28480.00
2024-05-09T07:25:12.870Z,29184.00
2024-05-09T07:26:12.737Z,29472.00
2024-05-09T07:27:12.734Z,29184.00
2024-05-09T07:28:12.693Z,28800.00
2024-05-09T07:29:12.697Z,28224.00
2024-05-09T07:30:16.706Z,27520.00
2024-05-09T07:31:13.717Z,27936.00
2024-05-09T07:32:12.675Z,28960.00
2024-05-09T07:33:12.796Z,29568.00
2024-05-09T07:34:12.826Z,30144.00
2024-05-09T07:35:12.641Z,30784.00
2024-05-09T07:36:12.601Z,30400.00
2024-05-09T07:37:12.812Z,30400.00
2024-05-09T07:38:12.684Z,30688.00
2024-05-09T07:39:12.582Z,31648.00
2024-05-09T07:40:21.240Z,32864.00
2024-05-09T07:41:13.643Z,34272.00
2024-05-09T07:42:12.535Z,35360.00
2024-05-09T07:43:12.576Z,36160.00
2024-05-09T07:44:12.526Z,37920.00
2024-05-09T07:45:29.825Z,37312.00
2024-05-09T07:47:14.114Z,38272.00
2024-05-09T07:48:28.064Z,37888.00
2024-05-09T07:49:44.553Z,36704.00
2024-05-09T07:50:55.380Z,33568.00
2024-05-09T07:53:29.285Z,30016.00
2024-05-09T07:53:37.292Z,29632.00
2024-05-09T07:54:13.568Z,29376.00
2024-05-09T07:55:12.517Z,29024.00
2024-05-09T07:56:12.818Z,28704.00
2024-05-09T07:57:12.420Z,28480.00
2024-05-09T07:58:12.366Z,28672.00
2024-05-09T07:59:12.351Z,28672.00
2024-05-09T08:00:17.214Z,28576.00
2024-05-09T08:01:13.471Z,28448.00
2024-05-09T08:02:12.418Z,28160.00
2024-05-09T08:03:12.398Z,27552.00
2024-05-09T08:04:12.388Z,26848.00
2024-05-09T08:05:12.496Z,26304.00
2024-05-09T08:06:12.289Z,26112.00
2024-05-09T08:07:12.344Z,26176.00
2024-05-09T08:08:12.252Z,26400.00
2024-05-09T08:09:16.971Z,26752.00
2024-05-09T08:10:18.682Z,27232.00
2024-05-09T08:11:13.264Z,27616.00
2024-05-09T08:12:12.226Z,27744.00
2024-05-09T08:13:12.351Z,27712.00
2024-05-09T08:14:12.199Z,27488.00
2024-05-09T08:15:12.176Z,27232.00
2024-05-09T08:16:12.174Z,27296.00
2024-05-09T08:17:12.291Z,27456.00
2024-05-09T08:18:12.401Z,27904.00
2024-05-09T08:19:12.359Z,28352.00
2024-05-09T08:20:15.904Z,28768.00
2024-05-09T08:21:13.136Z,29024.00
2024-05-09T08:22:12.148Z,29184.00
2024-05-09T08:23:12.087Z,29408.00
2024-05-09T08:24:12.138Z,29792.00
2024-05-09T08:25:13.981Z,30304.00
2024-05-09T08:26:12.083Z,31072.00
2024-05-09T08:27:12.045Z,31936.00
2024-05-09T08:28:12.267Z,32704.00
2024-05-09T08:29:12.057Z,32960.00
2024-05-09T08:30:21.326Z,32800.00
2024-05-09T08:31:13.083Z,32704.00
2024-05-09T08:32:11.991Z,32832.00
2024-05-09T08:33:12.036Z,33312.00
2024-05-09T08:34:12.163Z,34272.00
2024-05-09T08:35:11.973Z,35168.00
2024-05-09T08:36:12.025Z,35968.00
2024-05-09T08:37:19.424Z,36512.00
2024-05-09T08:38:12.974Z,36928.00
2024-05-09T08:39:11.929Z,37792.00
2024-05-09T08:40:23.452Z,39008.00
2024-05-09T08:41:12.892Z,40576.00
2024-05-09T08:42:11.918Z,42528.00
2024-05-09T08:43:12.999Z,44480.00
2024-05-09T08:44:11.872Z,46688.00
2024-05-09T08:45:11.863Z,47616.00
2024-05-09T08:46:11.989Z,49216.00
2024-05-09T08:47:11.853Z,54048.00
2024-05-09T08:48:11.990Z,50784.00
2024-05-09T08:50:24.059Z,48256.00
2024-05-09T08:51:12.786Z,49856.00
2024-05-09T08:52:11.837Z,49248.00
2024-05-09T08:53:11.761Z,57856.00
2024-05-09T08:54:11.782Z,68608.00
2024-05-09T08:55:11.784Z,139552.00
2024-05-09T08:56:11.916Z,57312.00
2024-05-09T08:57:11.714Z,64480.00
2024-05-09T08:58:11.898Z,172096.00
2024-05-09T08:59:11.710Z,89792.00
2024-05-09T09:00:15.107Z,154016.00
2024-05-09T09:01:12.805Z,147584.00
2024-05-09T09:02:11.825Z,115040.00
2024-05-09T09:03:11.755Z,133408.00
2024-05-09T09:04:11.746Z,128896.00
2024-05-09T09:05:11.798Z,116928.00
2024-05-09T09:06:11.752Z,136000.00
2024-05-09T09:07:11.623Z,117664.00
2024-05-09T09:08:11.592Z,176800.00
2024-05-09T09:09:11.586Z,161568.00
2024-05-09T09:10:17.602Z,164224.00
2024-05-09T09:11:12.661Z,150432.00
2024-05-09T09:12:11.582Z,97568.00
2024-05-09T09:13:11.681Z,46784.00
2024-05-09T09:14:11.543Z,48576.00
2024-05-09T09:15:11.527Z,74944.00
2024-05-09T09:16:11.659Z,129312.00
2024-05-09T09:17:11.568Z,164896.00
2024-05-09T09:18:12.435Z,159584.00
2024-05-09T09:19:11.691Z,152288.00
2024-05-09T09:20:16.437Z,155744.00
2024-05-09T09:21:12.452Z,145184.00
2024-05-09T09:22:11.617Z,150784.00
2024-05-09T09:23:11.452Z,131200.00
2024-05-09T09:24:11.456Z,153824.00
2024-05-09T09:25:11.641Z,149664.00
2024-05-09T09:26:11.395Z,113728.00
2024-05-09T09:27:11.388Z,118304.00
2024-05-09T09:28:11.415Z,157792.00
2024-05-09T09:29:11.370Z,147904.00
2024-05-09T09:30:22.604Z,151744.00
2024-05-09T09:31:12.365Z,161376.00
2024-05-09T09:32:11.339Z,157440.00
2024-05-09T09:33:11.796Z,162560.00
2024-05-09T09:34:11.606Z,124320.00
2024-05-09T09:35:11.294Z,123904.00
2024-05-09T09:36:11.730Z,112800.00
2024-05-09T09:37:11.506Z,94496.00
2024-05-09T09:38:11.344Z,62144.00
2024-05-09T09:39:11.253Z,52672.00
2024-05-09T09:40:13.300Z,53152.00
2024-05-09T09:41:11.380Z,39872.00
2024-05-09T09:42:11.258Z,61056.00
2024-05-09T09:43:11.387Z,145312.00
2024-05-09T09:44:11.226Z,149440.00
2024-05-09T09:45:11.197Z,148448.00
2024-05-09T09:46:12.765Z,142912.00
2024-05-09T09:47:11.279Z,145568.00
2024-05-09T09:48:11.273Z,147520.00
2024-05-09T09:49:11.364Z,154976.00
2024-05-09T09:50:14.510Z,145504.00
2024-05-09T09:51:12.140Z,147424.00
2024-05-09T09:52:11.452Z,132544.00
2024-05-09T09:53:11.148Z,143072.00
2024-05-09T09:54:11.153Z,141792.00
2024-05-09T09:55:11.214Z,145088.00
2024-05-09T09:56:11.090Z,152256.00
2024-05-09T09:57:11.068Z,150784.00
2024-05-09T09:58:13.902Z,147264.00
2024-05-09T09:59:11.051Z,153504.00
2024-05-09T10:00:12.005Z,150048.00
2024-05-09T10:01:12.123Z,148448.00
2024-05-09T10:02:11.300Z,145376.00
2024-05-09T10:03:11.024Z,104960.00
2024-05-09T10:04:11.048Z,130816.00
2024-05-09T10:05:11.158Z,124960.00
2024-05-09T10:06:10.999Z,124832.00
2024-05-09T10:07:11.053Z,135072.00
2024-05-09T10:08:10.951Z,145248.00
2024-05-09T10:09:10.936Z,115104.00
2024-05-09T10:10:16.076Z,100800.00
2024-05-09T10:11:11.948Z,87488.00
2024-05-09T10:12:11.119Z,109184.00
2024-05-09T10:13:10.931Z,117600.00
2024-05-09T10:14:10.893Z,106752.00
2024-05-09T10:15:10.861Z,117024.00
2024-05-09T10:16:11.214Z,121440.00
2024-05-09T10:17:10.847Z,136704.00
2024-05-09T10:18:10.948Z,136832.00
2024-05-09T10:19:10.958Z,137632.00
2024-05-09T10:20:18.332Z,140736.00
2024-05-09T10:21:11.797Z,146720.00
2024-05-09T10:22:10.872Z,139392.00
2024-05-09T10:23:10.776Z,132960.00
2024-05-09T10:24:10.783Z,141632.00
2024-05-09T10:25:10.784Z,132576.00
2024-05-09T10:26:10.758Z,128928.00
2024-05-09T10:27:10.721Z,146432.00
2024-05-09T10:28:10.862Z,147552.00
2024-05-09T10:29:10.712Z,150816.00
2024-05-09T10:30:17.669Z,164768.00
2024-05-09T10:31:11.918Z,141952.00
2024-05-09T10:32:10.693Z,137888.00
2024-05-09T10:33:10.738Z,139104.00
2024-05-09T10:34:10.874Z,145600.00
2024-05-09T10:35:10.727Z,150464.00
2024-05-09T10:36:10.669Z,144352.00
2024-05-09T10:37:10.719Z,139040.00
2024-05-09T10:38:10.608Z,143904.00
2024-05-09T10:39:10.586Z,149440.00
2024-05-09T10:40:17.256Z,149120.00
2024-05-09T10:41:11.563Z,149952.00
2024-05-09T10:42:10.582Z,141280.00
2024-05-09T10:43:10.571Z,146304.00
2024-05-09T10:44:10.549Z,152256.00
2024-05-09T10:45:10.531Z,143296.00
2024-05-09T10:46:10.758Z,135328.00
2024-05-09T10:47:10.535Z,127360.00
2024-05-09T10:48:10.606Z,137504.00
2024-05-09T10:49:10.558Z,136896.00
2024-05-09T10:50:18.484Z,139648.00
2024-05-09T10:51:11.455Z,134016.00
2024-05-09T10:52:10.503Z,131168.00
2024-05-09T10:53:10.470Z,143072.00
2024-05-09T10:54:10.452Z,142112.00
2024-05-09T10:55:10.481Z,146624.00
2024-05-09T10:56:10.425Z,147360.00
2024-05-09T10:57:10.402Z,136928.00
2024-05-09T10:58:10.461Z,131456.00
2024-05-09T10:59:10.408Z,135072.00
2024-05-09T11:00:18.903Z,135424.00
2024-05-09T11:01:11.662Z,137120.00
2024-05-09T11:02:10.608Z,146144.00
2024-05-09T11:03:10.343Z,143520.00
2024-05-09T11:04:10.464Z,139776.00
2024-05-09T11:05:10.596Z,131936.00
2024-05-09T11:06:10.336Z,127744.00
2024-05-09T11:07:10.347Z,123552.00
2024-05-09T11:08:10.272Z,115456.00
2024-05-09T11:09:10.265Z,122016.00
2024-05-09T11:10:12.634Z,128320.00
2024-05-09T11:11:10.238Z,118080.00
2024-05-09T11:12:10.261Z,128288.00
2024-05-09T11:13:10.280Z,139040.00
2024-05-09T11:14:10.207Z,137312.00
2024-05-09T11:15:10.196Z,135584.00
2024-05-09T11:16:10.292Z,134080.00
2024-05-09T11:17:10.268Z,132448.00
2024-05-09T11:18:10.255Z,147808.00
2024-05-09T11:19:10.260Z,140896.00
2024-05-09T11:20:16.744Z,140416.00
2024-05-09T11:21:11.231Z,143936.00
2024-05-09T11:22:10.153Z,142336.00
2024-05-09T11:23:10.132Z,137056.00
2024-05-09T11:24:11.555Z,132448.00
2024-05-09T11:25:10.267Z,136992.00
2024-05-09T11:26:10.081Z,144288.00
2024-05-09T11:27:10.079Z,135552.00
2024-05-09T11:28:10.167Z,133248.00
2024-05-09T11:29:10.040Z,128608.00
2024-05-09T11:30:17.236Z,131776.00
2024-05-09T11:31:11.266Z,127488.00
2024-05-09T11:32:10.069Z,122784.00
2024-05-09T11:33:10.006Z,116256.00
2024-05-09T11:34:10.049Z,114688.00
2024-05-09T11:35:09.991Z,115488.00
2024-05-09T11:36:10.003Z,113344.00
2024-05-09T11:37:10.042Z,110048.00
2024-05-09T11:38:09.944Z,118176.00
2024-05-09T11:39:09.932Z,123104.00
2024-05-09T11:40:16.803Z,120832.00
2024-05-09T11:41:10.934Z,121152.00
2024-05-09T11:42:09.936Z,125792.00
2024-05-09T11:43:09.982Z,129632.00
2024-05-09T11:44:09.879Z,127712.00
2024-05-09T11:45:09.866Z,119872.00
2024-05-09T11:46:09.901Z,119264.00
2024-05-09T11:47:09.889Z,114944.00
2024-05-09T11:48:09.960Z,109664.00
2024-05-09T11:49:10.106Z,113088.00
2024-05-09T11:50:16.009Z,114080.00
2024-05-09T11:51:10.815Z,114144.00
2024-05-09T11:52:09.853Z,113920.00
2024-05-09T11:53:09.778Z,112448.00
2024-05-09T11:54:09.788Z,112032.00
2024-05-09T11:55:09.883Z,115456.00
2024-05-09T11:56:09.747Z,120576.00
2024-05-09T11:57:09.748Z,119584.00
2024-05-09T11:58:09.902Z,119488.00
2024-05-09T11:59:09.711Z,124160.00
2024-05-09T12:00:14.773Z,127264.00
2024-05-09T12:01:10.775Z,120896.00
2024-05-09T12:02:10.042Z,124480.00
2024-05-09T12:03:09.689Z,120352.00
2024-05-09T12:04:09.851Z,124576.00
2024-05-09T12:05:09.849Z,126912.00
2024-05-09T12:06:09.717Z,119680.00
2024-05-09T12:07:12.759Z,113728.00
2024-05-09T12:08:09.620Z,115808.00
2024-05-09T12:09:09.606Z,121600.00
2024-05-09T12:10:16.496Z,116064.00
2024-05-09T12:11:10.677Z,113216.00
2024-05-09T12:12:09.597Z,111744.00
2024-05-09T12:13:09.625Z,111744.00